Time;durP1;ratioP1;P1;durP2;ratioP2;P2;SDS_P1;SDS_P2;PMS_P1;PMS_P2;Temp;Humidity;BMP_temperature;BMP_pressure;BME280_temperature;BME280_humidity;BME280_pressure;Samples;Min_cycle;Max_cycle;Signal;HPM_P1;HPM_P2
2022/06/14 00:01:43;;;;;;;7.30;3.03;;;;;;;13.07;100.00;96759.22;4975167;28;20030;-80
2022/06/14 00:04:09;;;;;;;7.90;3.90;;;;;;;13.07;100.00;96766.34;4975967;28;20089;-79
2022/06/14 00:06:35;;;;;;;7.17;3.83;;;;;;;12.84;100.00;96763.47;4979720;28;20031;-80
2022/06/14 00:09:02;;;;;;;12.37;4.03;;;;;;;12.81;100.00;96762.00;4976036;28;20054;-81
2022/06/14 00:11:34;;;;;;;9.53;3.70;;;;;;;12.96;100.00;96760.38;4980324;28;20863;-80
2022/06/14 00:14:01;;;;;;;8.07;3.70;;;;;;;12.90;100.00;96766.28;4972269;28;20023;-79
2022/06/14 00:16:28;;;;;;;5.90;3.07;;;;;;;13.06;100.00;96762.06;4970502;28;20035;-79
2022/06/14 00:18:56;;;;;;;6.90;3.50;;;;;;;12.81;100.00;96762.00;4969998;28;20030;-79
2022/06/14 00:21:21;;;;;;;10.23;4.07;;;;;;;12.87;100.00;96761.31;4973666;28;20103;-80
2022/06/14 00:23:48;;;;;;;7.77;4.00;;;;;;;12.88;100.00;96755.09;4968468;28;20489;-79
2022/06/14 00:26:14;;;;;;;8.50;4.17;;;;;;;12.81;100.00;96759.34;4970606;28;20114;-80
2022/06/14 00:28:42;;;;;;;8.73;3.83;;;;;;;12.76;100.00;96761.63;4970336;28;20951;-80
2022/06/14 00:31:18;;;;;;;7.50;3.83;;;;;;;12.76;100.00;96753.72;4975716;28;20125;-80
2022/06/14 00:33:44;;;;;;;7.13;3.67;;;;;;;12.48;100.00;96756.59;4979546;28;20076;-79
2022/06/14 00:36:49;;;;;;;9.13;4.17;;;;;;;12.34;100.00;96751.06;4963178;28;20501;-80
2022/06/14 00:39:15;;;;;;;9.13;3.83;;;;;;;12.36;100.00;96762.28;4967283;28;20510;-80
2022/06/14 00:41:46;;;;;;;8.27;4.87;;;;;;;12.30;100.00;96757.63;4970258;28;20022;-79
2022/06/14 00:44:21;;;;;;;9.60;3.60;;;;;;;12.34;100.00;96749.28;5001357;28;20022;-80
2022/06/14 00:47:14;;;;;;;10.57;4.60;;;;;;;12.30;100.00;96747.91;4987661;28;20128;-81
2022/06/14 00:50:01;;;;;;;9.77;3.80;;;;;;;12.34;100.00;96754.53;4981091;28;20675;-80
2022/06/14 00:52:30;;;;;;;12.10;4.27;;;;;;;12.24;100.00;96754.66;4980095;28;20038;-80
2022/06/14 00:55:02;;;;;;;7.53;3.70;;;;;;;12.20;100.00;96757.75;4979102;28;20022;-79
2022/06/14 00:57:43;;;;;;;9.77;4.10;;;;;;;12.23;100.00;96757.44;4982612;28;21371;-79
2022/06/14 01:00:31;;;;;;;6.60;4.00;;;;;;;12.18;100.00;96760.56;4969252;28;20220;-80
2022/06/14 01:03:03;;;;;;;8.50;3.67;;;;;;;11.95;100.00;96754.97;4976280;28;20057;-80
2022/06/14 01:08:26;;;;;;;6.13;3.50;;;;;;;11.86;100.00;96763.78;4983276;28;20415;-80
2022/06/14 01:10:53;;;;;;;7.63;3.33;;;;;;;11.85;100.00;96759.50;4988993;28;20043;-80
2022/06/14 01:13:20;;;;;;;9.60;3.90;;;;;;;11.93;100.00;96758.72;4970566;28;20070;-79
2022/06/14 01:15:50;;;;;;;8.43;4.00;;;;;;;11.88;100.00;96759.22;4970680;28;20422;-80
2022/06/14 01:18:17;;;;;;;9.87;3.50;;;;;;;11.86;100.00;96761.16;4985307;28;20046;-79
2022/06/14 01:20:43;;;;;;;8.40;4.10;;;;;;;11.87;100.00;96757.56;4988931;28;20503;-79
2022/06/14 01:23:13;;;;;;;7.73;3.30;;;;;;;11.90;100.00;96751.97;4971204;28;20041;-80
2022/06/14 01:25:44;;;;;;;7.93;3.93;;;;;;;11.92;100.00;96750.00;4985399;28;20033;-80
2022/06/14 01:28:10;;;;;;;7.67;3.60;;;;;;;11.53;100.00;96754.78;5002364;28;20045;-80
2022/06/14 01:30:45;;;;;;;7.87;3.80;;;;;;;11.55;100.00;96755.47;4986352;28;20986;-79
2022/06/14 01:33:23;;;;;;;7.93;4.17;;;;;;;11.50;100.00;96757.72;4969835;28;20045;-80
2022/06/14 01:35:54;;;;;;;6.73;3.43;;;;;;;11.61;100.00;96751.41;4986857;28;20092;-79
2022/06/14 01:38:21;;;;;;;7.53;3.47;;;;;;;11.29;100.00;96753.59;4976154;28;20137;-78
2022/06/14 01:40:51;;;;;;;10.83;4.73;;;;;;;10.92;100.00;96758.16;4983730;28;21422;-78
2022/06/14 01:43:49;;;;;;;9.80;3.90;;;;;;;10.96;100.00;96752.44;4980955;28;20096;-79
2022/06/14 01:46:29;;;;;;;7.47;4.87;;;;;;;10.96;100.00;96749.00;4985432;28;20034;-78
2022/06/14 01:52:20;;;;;;;9.67;4.33;;;;;;;10.97;100.00;96762.03;4981388;28;20034;-79
2022/06/14 01:54:55;;;;;;;10.30;4.63;;;;;;;11.11;100.00;96751.97;4967508;28;20041;-78
2022/06/14 01:57:46;;;;;;;12.27;5.10;;;;;;;11.19;100.00;96752.03;4981608;28;20023;-78
2022/06/14 02:00:27;;;;;;;13.23;5.07;;;;;;;11.25;100.00;96751.44;4974923;28;20038;-79
2022/06/14 02:06:32;;;;;;;9.77;4.40;;;;;;;11.33;100.00;96749.72;4986313;28;20047;-78
2022/06/14 02:09:09;;;;;;;9.53;4.03;;;;;;;11.30;100.00;96754.41;4983682;28;20039;-78
2022/06/14 02:11:35;;;;;;;8.63;4.17;;;;;;;11.41;100.00;96748.13;4981704;28;20042;-79
2022/06/14 02:14:22;;;;;;;10.83;4.83;;;;;;;11.32;100.00;96742.75;4983081;28;21335;-78
2022/06/14 02:16:59;;;;;;;7.93;4.40;;;;;;;11.22;100.00;96749.91;4988824;28;20130;-79
2022/06/14 02:19:41;;;;;;;8.87;3.93;;;;;;;11.26;100.00;96743.38;4979882;28;20947;-78
2022/06/14 02:22:22;;;;;;;8.83;3.93;;;;;;;11.07;100.00;96749.63;4983457;28;20041;-80
2022/06/14 02:24:57;;;;;;;9.40;4.40;;;;;;;11.12;100.00;96745.69;4998723;28;20121;-78
2022/06/14 02:27:39;;;;;;;7.63;4.80;;;;;;;11.22;100.00;96743.81;4986319;28;20090;-78
2022/06/14 02:30:17;;;;;;;9.68;4.63;;;;;;;11.06;100.00;96747.94;4983892;28;20030;-79
2022/06/14 02:33:05;;;;;;;10.43;4.80;;;;;;;10.90;100.00;96753.06;4970771;28;20046;-78
2022/06/14 02:35:46;;;;;;;8.77;3.90;;;;;;;11.04;100.00;96754.34;4999585;28;21277;-79
2022/06/14 02:38:29;;;;;;;8.00;4.60;;;;;;;10.98;100.00;96754.94;4973430;28;20033;-78
2022/06/14 02:41:20;;;;;;;7.70;4.20;;;;;;;10.82;100.00;96755.59;4986115;28;20049;-78
2022/06/14 02:43:48;;;;;;;7.43;4.43;;;;;;;10.91;100.00;96754.72;4985942;28;20041;-78
2022/06/14 02:46:28;;;;;;;11.87;4.47;;;;;;;10.81;100.00;96756.59;4969782;28;20034;-79
2022/06/14 02:49:10;;;;;;;8.77;4.57;;;;;;;10.80;100.00;96757.56;4988003;28;20039;-78
2022/06/14 02:51:53;;;;;;;9.73;4.78;;;;;;;10.86;100.00;96749.06;4979634;28;20038;-78
2022/06/14 02:54:27;;;;;;;7.97;4.10;;;;;;;10.83;100.00;96742.31;4983698;28;20519;-78
2022/06/14 02:57:05;;;;;;;10.57;4.60;;;;;;;10.88;100.00;96749.75;4965738;28;20054;-79
2022/06/14 02:59:39;;;;;;;8.37;4.40;;;;;;;10.95;100.00;96748.16;4988023;28;20073;-79
2022/06/14 03:02:18;;;;;;;12.23;6.63;;;;;;;10.81;100.00;96754.78;4967273;28;20034;-79
2022/06/14 03:04:51;;;;;;;10.53;5.07;;;;;;;10.76;100.00;96745.66;4968799;28;20053;-79
2022/06/14 03:07:25;;;;;;;8.23;5.13;;;;;;;10.72;100.00;96750.38;4966542;28;20038;-79
2022/06/14 03:09:52;;;;;;;9.00;5.53;;;;;;;10.70;100.00;96746.28;4978466;28;20042;-80
2022/06/14 03:12:39;;;;;;;9.77;4.67;;;;;;;10.69;100.00;96749.84;4963417;28;20054;-78
2022/06/14 03:15:12;;;;;;;10.40;5.40;;;;;;;10.61;100.00;96751.41;4983942;28;20037;-78
2022/06/14 03:18:15;;;;;;;10.82;5.57;;;;;;;10.59;100.00;96739.38;4965886;28;20109;-78
2022/06/14 03:20:56;;;;;;;8.75;4.80;;;;;;;10.50;100.00;96754.25;4983631;28;20062;-79
2022/06/14 03:24:10;;;;;;;10.00;4.97;;;;;;;10.46;100.00;96746.78;4976325;28;20042;-79
2022/06/14 03:26:41;;;;;;;10.55;5.03;;;;;;;10.41;100.00;96749.03;4964579;28;20042;-79
2022/06/14 03:29:22;;;;;;;9.77;5.53;;;;;;;10.17;100.00;96754.78;4966161;28;20050;-79
2022/06/14 03:32:02;;;;;;;9.20;5.27;;;;;;;10.22;100.00;96749.91;4983143;28;20030;-79
2022/06/14 03:34:35;;;;;;;14.63;6.90;;;;;;;10.25;100.00;96760.13;4983096;28;20045;-80
2022/06/14 03:37:02;;;;;;;13.35;5.70;;;;;;;10.31;100.00;96755.16;4967360;28;20065;-79
2022/06/14 03:39:36;;;;;;;10.23;5.10;;;;;;;10.47;100.00;96748.47;4987426;28;20121;-79
2022/06/14 03:42:04;;;;;;;9.43;4.73;;;;;;;10.59;100.00;96756.00;4987933;28;20442;-78
2022/06/14 03:44:31;;;;;;;14.37;6.87;;;;;;;10.49;100.00;96757.00;4980638;28;20045;-79
2022/06/14 03:47:09;;;;;;;10.33;5.43;;;;;;;10.55;100.00;96759.06;4988548;28;20125;-78
2022/06/14 03:49:37;;;;;;;9.77;5.10;;;;;;;10.43;100.00;96760.22;4987356;28;20114;-78
2022/06/14 03:52:19;;;;;;;10.13;5.60;;;;;;;10.30;100.00;96753.50;4990414;28;20679;-79
2022/06/14 03:55:07;;;;;;;11.47;5.30;;;;;;;10.34;100.00;96756.69;5010174;28;20034;-80
2022/06/14 03:57:51;;;;;;;12.13;5.67;;;;;;;10.33;100.00;96755.03;4994884;28;20023;-79
2022/06/14 04:00:39;;;;;;;12.10;6.37;;;;;;;10.45;100.00;96755.66;4974277;28;20070;-79
2022/06/14 04:03:43;;;;;;;9.33;6.73;;;;;;;10.38;100.00;96750.97;4994083;28;20407;-79
2022/06/14 04:06:27;;;;;;;10.33;6.83;;;;;;;10.46;100.00;96749.41;4967542;28;20124;-80
2022/06/14 04:09:18;;;;;;;14.70;8.23;;;;;;;10.49;100.00;96754.38;4991439;28;20440;-79
2022/06/14 04:11:58;;;;;;;10.70;7.47;;;;;;;10.23;100.00;96754.19;4994002;28;20038;-79
2022/06/14 04:14:33;;;;;;;12.53;7.53;;;;;;;10.30;100.00;96760.56;4990511;28;20038;-79
2022/06/14 04:17:04;;;;;;;11.97;7.53;;;;;;;10.43;100.00;96750.56;5001839;28;20049;-79
2022/06/14 04:19:49;;;;;;;11.57;7.80;;;;;;;10.56;100.00;96750.19;4983243;28;20042;-79
2022/06/14 04:22:19;;;;;;;11.80;7.83;;;;;;;10.44;100.00;96752.22;4987209;28;20443;-79
2022/06/14 04:24:55;;;;;;;14.17;6.97;;;;;;;10.60;100.00;96756.84;4986130;28;20037;-80
2022/06/14 04:27:44;;;;;;;8.73;5.60;;;;;;;10.80;100.00;96758.38;4970189;28;20061;-79
2022/06/14 04:30:10;;;;;;;12.43;5.67;;;;;;;10.36;100.00;96763.47;4971454;28;20120;-79
2022/06/14 04:32:36;;;;;;;10.90;5.27;;;;;;;10.37;100.00;96764.28;4985231;28;20101;-78
2022/06/14 04:35:06;;;;;;;9.83;5.67;;;;;;;10.41;100.00;96763.00;4995319;28;20134;-79
2022/06/14 04:37:36;;;;;;;9.83;6.50;;;;;;;10.44;100.00;96757.47;4977614;28;20109;-80
2022/06/14 04:40:10;;;;;;;10.60;6.33;;;;;;;10.59;100.00;96763.06;4977331;28;20558;-79
2022/06/14 04:42:39;;;;;;;8.47;5.60;;;;;;;10.69;100.00;96765.63;4976835;28;20038;-79
2022/06/14 04:45:05;;;;;;;8.23;5.50;;;;;;;10.87;100.00;96753.38;4965581;28;20146;-80
2022/06/14 04:47:48;;;;;;;13.47;6.47;;;;;;;11.11;100.00;96751.97;4965217;28;20065;-79
2022/06/14 04:50:31;;;;;;;10.82;5.35;;;;;;;10.80;100.00;96747.03;4982741;28;20025;-80
2022/06/14 04:53:03;;;;;;;10.05;5.60;;;;;;;10.97;100.00;96738.34;4967034;28;20046;-80
2022/06/14 04:55:46;;;;;;;8.83;5.10;;;;;;;11.37;100.00;96738.84;4980478;28;20031;-79
2022/06/14 04:58:20;;;;;;;9.23;5.50;;;;;;;11.51;100.00;96740.97;4984048;28;20507;-81
2022/06/14 05:01:00;;;;;;;12.87;5.87;;;;;;;11.57;100.00;96741.19;4958355;28;20042;-80
2022/06/14 05:03:41;;;;;;;8.13;4.73;;;;;;;11.70;100.00;96740.78;4983990;28;20117;-80
2022/06/14 05:06:13;;;;;;;8.93;6.07;;;;;;;11.63;100.00;96739.72;4989264;28;20038;-79
2022/06/14 05:09:02;;;;;;;9.43;5.80;;;;;;;11.52;100.00;96735.53;4989304;28;20030;-80
2022/06/14 05:11:49;;;;;;;12.30;6.00;;;;;;;11.70;100.00;96732.88;4991373;28;20042;-80
2022/06/14 05:14:20;;;;;;;10.93;6.30;;;;;;;11.77;100.00;96735.72;4995911;28;20042;-80
2022/06/14 05:17:19;;;;;;;9.03;6.40;;;;;;;11.92;100.00;96736.00;4994992;28;20034;-80
2022/06/14 05:20:39;;;;;;;10.23;6.57;;;;;;;12.26;100.00;96736.84;4993437;28;20073;-80
2022/06/14 05:23:26;;;;;;;11.30;6.70;;;;;;;12.36;100.00;96738.53;4989184;28;20042;-80
2022/06/14 05:26:17;;;;;;;19.37;8.70;;;;;;;12.43;100.00;96740.38;5005181;28;20053;-80
2022/06/14 05:29:02;;;;;;;12.50;6.67;;;;;;;12.71;100.00;96745.47;4993018;28;20084;-80
2022/06/14 05:31:51;;;;;;;14.03;7.50;;;;;;;12.85;100.00;96747.47;4975740;28;20981;-80
2022/06/14 05:34:29;;;;;;;13.47;6.90;;;;;;;13.21;100.00;96745.41;4972494;28;20117;-80
2022/06/14 05:37:07;;;;;;;11.97;6.67;;;;;;;13.62;100.00;96739.38;4991202;28;20074;-80
2022/06/14 05:39:42;;;;;;;13.00;6.57;;;;;;;13.63;100.00;96741.00;4971527;28;20214;-78
2022/06/14 05:42:19;;;;;;;11.80;6.43;;;;;;;13.77;100.00;96747.44;4987125;28;20536;-79
2022/06/14 05:44:48;;;;;;;14.60;6.57;;;;;;;14.05;100.00;96735.50;4995643;28;20034;-80
2022/06/14 05:47:17;;;;;;;11.30;6.10;;;;;;;14.07;100.00;96738.78;4995320;28;20088;-79
2022/06/14 05:49:58;;;;;;;10.30;5.73;;;;;;;14.35;100.00;96738.38;5000617;28;20048;-80
2022/06/14 05:52:44;;;;;;;9.67;5.37;;;;;;;14.58;100.00;96725.28;4993342;28;20038;-80
2022/06/14 05:55:19;;;;;;;11.43;5.33;;;;;;;15.02;100.00;96732.66;4982481;28;20045;-78
2022/06/14 05:57:51;;;;;;;11.47;6.23;;;;;;;15.27;100.00;96738.63;4987399;28;20098;-79
2022/06/14 06:00:20;;;;;;;9.82;5.25;;;;;;;15.03;100.00;96739.63;4992397;28;20053;-79
2022/06/14 06:03:11;;;;;;;10.83;5.63;;;;;;;15.17;100.00;96730.91;4999811;28;20042;-79
2022/06/14 06:05:58;;;;;;;9.07;5.27;;;;;;;15.04;100.00;96733.31;4992149;28;20055;-79
2022/06/14 06:08:28;;;;;;;10.60;4.97;;;;;;;15.83;100.00;96730.41;4990825;28;20078;-80
2022/06/14 06:11:02;;;;;;;8.60;5.43;;;;;;;15.94;100.00;96725.50;4990954;28;20038;-79
2022/06/14 06:13:33;;;;;;;12.57;5.93;;;;;;;16.38;99.44;96723.91;4991410;28;20044;-80
2022/06/14 06:16:12;;;;;;;11.90;6.10;;;;;;;16.16;100.00;96721.16;4995695;28;20048;-79
2022/06/14 06:18:42;;;;;;;11.90;5.30;;;;;;;16.66;98.80;96721.41;5006195;28;20030;-80
2022/06/14 06:21:25;;;;;;;12.10;5.13;;;;;;;16.63;98.03;96722.59;5009038;28;20045;-80
2022/06/14 06:24:20;;;;;;;11.70;5.40;;;;;;;17.32;94.32;96719.50;4999806;28;20093;-80
2022/06/14 06:26:53;;;;;;;9.77;4.90;;;;;;;17.46;93.74;96723.13;4999888;28;20035;-80
2022/06/14 06:29:28;;;;;;;;;;;;;;;18.24;84.30;96718.66;4998925;28;20038;-80
2022/06/14 06:31:54;;;;;;;10.13;4.50;;;;;;;18.23;85.44;96722.31;5007427;28;19921;-80
2022/06/14 06:34:20;;;;;;;9.55;4.88;;;;;;;18.25;81.35;96722.13;4994324;28;20022;-80
2022/06/14 06:36:49;;;;;;;9.38;4.95;;;;;;;18.34;83.56;96729.78;4995452;28;20038;-80
2022/06/14 06:39:26;;;;;;;10.52;5.28;;;;;;;18.96;75.99;96725.38;4986033;28;20026;-80
2022/06/14 06:42:01;;;;;;;19.08;12.43;;;;;;;19.07;71.85;96722.13;5025560;28;20133;-80
2022/06/14 06:44:37;;;;;;;9.15;5.07;;;;;;;19.59;66.40;96718.94;4999463;28;20048;-81
2022/06/14 06:47:27;;;;;;;12.80;5.10;;;;;;;18.88;68.86;96724.72;4994256;28;20049;-81
2022/06/14 06:50:02;;;;;;;10.43;5.07;;;;;;;19.26;68.07;96725.88;4998428;28;20090;-81
2022/06/14 06:52:49;;;;;;;11.70;4.55;;;;;;;19.39;65.98;96711.75;4996757;28;20034;-81
2022/06/14 06:55:33;;;;;;;8.85;4.47;;;;;;;20.36;59.67;96715.63;5001112;28;20042;-81
2022/06/14 06:58:03;;;;;;;9.85;4.75;;;;;;;20.64;57.23;96714.56;4999204;28;20038;-81
2022/06/14 07:00:32;;;;;;;9.63;4.90;;;;;;;20.27;57.71;96711.53;4997003;28;20042;-81
2022/06/14 07:03:27;;;;;;;10.40;4.93;;;;;;;20.60;58.22;96718.69;4999781;28;20089;-81
2022/06/14 07:05:57;;;;;;;10.20;4.65;;;;;;;21.61;55.59;96712.63;5011019;28;20038;-83
2022/06/14 07:08:37;;;;;;;10.63;4.72;;;;;;;20.60;54.24;96706.13;4989979;28;20057;-83
2022/06/14 07:11:05;;;;;;;9.18;4.28;;;;;;;21.34;53.36;96709.28;5002525;28;20049;-81
2022/06/14 07:13:48;;;;;;;9.30;3.63;;;;;;;22.23;50.24;96710.06;4997882;28;20117;-80
2022/06/14 07:16:24;;;;;;;11.18;4.07;;;;;;;21.81;48.71;96713.28;5016141;28;20037;-81
2022/06/14 07:19:19;;;;;;;9.50;3.97;;;;;;;21.94;50.48;96714.22;4993505;28;20511;-82
2022/06/14 07:21:52;;;;;;;9.63;4.97;;;;;;;21.31;50.95;96717.75;4998604;28;20026;-82
2022/06/14 07:24:31;;;;;;;;;;;;;;;22.15;47.81;96713.84;4996432;28;20070;-82
2022/06/14 07:27:07;;;;;;;7.90;3.53;;;;;;;22.61;45.75;96701.84;4993984;28;19914;-81
2022/06/14 07:29:46;;;;;;;8.50;4.13;;;;;;;22.91;45.50;96698.41;4993394;28;20399;-85
2022/06/14 07:32:14;;;;;;;8.15;4.07;;;;;;;22.92;43.63;96700.03;4997840;28;20030;-84
2022/06/14 07:34:42;;;;;;;7.57;3.47;;;;;;;22.93;45.38;96699.00;5000938;28;20102;-81
2022/06/14 07:37:13;;;;;;;7.13;3.78;;;;;;;23.71;41.80;96698.94;4994927;28;20471;-80
2022/06/14 07:40:09;;;;;;;9.98;4.13;;;;;;;22.39;43.63;96701.44;4995712;28;20042;-80
2022/06/14 07:42:39;;;;;;;8.75;4.03;;;;;;;22.77;43.74;96706.59;4990714;28;20125;-80
2022/06/14 07:45:16;;;;;;;9.98;4.57;;;;;;;23.07;43.76;96711.19;5000607;28;20037;-81
2022/06/14 07:48:07;;;;;;;11.38;4.43;;;;;;;24.08;41.45;96704.13;4985066;28;20049;-84
2022/06/14 07:50:38;;;;;;;6.75;3.63;;;;;;;23.85;42.02;96698.75;4995154;28;20037;-82
2022/06/14 07:53:14;;;;;;;8.20;3.75;;;;;;;23.53;41.74;96702.47;5019220;28;20038;-82
2022/06/14 07:55:54;;;;;;;8.98;3.80;;;;;;;23.24;41.85;96706.03;5005008;28;20049;-82
2022/06/14 07:58:48;;;;;;;8.50;3.88;;;;;;;24.40;40.78;96695.69;5003935;28;20030;-81
2022/06/14 08:01:26;;;;;;;8.98;3.92;;;;;;;24.21;40.59;96690.47;4994462;28;20038;-83
2022/06/14 08:04:08;;;;;;;9.07;3.80;;;;;;;24.37;39.96;96694.28;4997061;28;20031;-83
2022/06/14 08:06:59;;;;;;;8.43;4.20;;;;;;;25.27;37.78;96698.31;4983196;28;20039;-84
2022/06/14 08:09:58;;;;;;;11.70;5.10;;;;;;;25.47;37.14;96700.56;4998855;28;20042;-89
2022/06/14 08:12:41;;;;;;;8.38;3.83;;;;;;;25.20;37.03;96692.25;4993597;28;20053;-81
2022/06/14 08:15:11;;;;;;;7.97;3.67;;;;;;;24.52;38.63;96699.22;4979137;28;20094;-85
2022/06/14 08:17:57;;;;;;;8.30;3.72;;;;;;;24.86;38.72;96702.88;4985166;28;20074;-81
2022/06/14 08:20:30;;;;;;;12.45;4.07;;;;;;;25.22;37.24;96698.22;4998803;28;20110;-84
2022/06/14 08:23:02;;;;;;;7.78;3.28;;;;;;;26.19;35.56;96697.19;4984736;28;20737;-84
2022/06/14 08:25:35;;;;;;;6.85;3.25;;;;;;;27.20;35.78;96688.00;4980150;28;21206;-81
2022/06/14 08:28:27;;;;;;;8.50;3.70;;;;;;;25.62;38.27;96695.44;4981403;28;20040;-82
2022/06/14 08:31:04;;;;;;;8.77;3.47;;;;;;;26.63;34.63;96699.16;4981367;28;20034;-84
2022/06/14 08:33:46;;;;;;;8.85;3.58;;;;;;;26.85;36.06;96702.66;4980072;28;20404;-81
2022/06/14 08:36:20;;;;;;;6.83;3.40;;;;;;;26.43;35.11;96705.06;5008586;28;20042;-81
2022/06/14 08:38:59;;;;;;;7.05;3.30;;;;;;;26.82;34.96;96700.47;4997300;28;20548;-82
2022/06/14 08:41:44;;;;;;;7.75;3.72;;;;;;;26.77;35.65;96695.84;4996344;28;20042;-82
2022/06/14 08:44:34;;;;;;;9.40;3.35;;;;;;;27.57;34.01;96696.19;4991355;28;20046;-83
2022/06/14 08:47:10;;;;;;;7.65;3.30;;;;;;;25.94;36.10;96705.69;4993977;28;20039;-84
2022/06/14 08:49:55;;;;;;;12.40;4.55;;;;;;;26.30;35.37;96711.63;4977913;28;20182;-86
2022/06/14 08:52:28;;;;;;;7.85;3.63;;;;;;;25.99;34.11;96711.16;4994250;28;20066;-84
2022/06/14 08:55:00;;;;;;;;;;;;;;;27.80;31.79;96705.03;4994020;28;20034;-82
2022/06/14 08:57:45;;;;;;;7.78;3.25;;;;;;;27.81;31.58;96702.09;4998225;28;19918;-85
2022/06/14 09:00:23;;;;;;;8.45;4.78;;;;;;;27.13;34.11;96708.94;4991268;28;20133;-85
2022/06/14 09:03:27;;;;;;;7.30;3.92;;;;;;;26.59;33.68;96706.91;4973031;28;20042;-86
2022/06/14 09:06:15;;;;;;;6.82;2.95;;;;;;;28.16;31.57;96701.53;4987694;28;20121;-83
2022/06/14 09:09:10;;;;;;;6.97;3.92;;;;;;;27.07;33.82;96705.38;4992696;28;20053;-85
2022/06/14 09:12:07;;;;;;;7.15;4.10;;;;;;;27.04;32.46;96700.47;4990662;28;20065;-84
2022/06/14 09:15:10;;;;;;;7.72;3.58;;;;;;;25.64;33.82;96708.66;4988682;28;20038;-85
2022/06/14 09:17:41;;;;;;;5.88;2.90;;;;;;;25.99;34.50;96699.53;4988421;28;20053;-77
2022/06/14 09:20:38;;;;;;;7.70;3.70;;;;;;;26.27;31.85;96695.94;4993375;28;20153;-81
2022/06/14 09:23:23;;;;;;;6.68;3.00;;;;;;;27.42;31.60;96694.13;4984380;28;20045;-84
2022/06/14 09:26:18;;;;;;;9.75;3.33;;;;;;;28.10;30.01;96683.69;4979753;28;20034;-81
2022/06/14 09:28:44;;;;;;;9.30;3.83;;;;;;;28.57;30.15;96682.06;5001860;28;20089;-83
2022/06/14 09:31:16;;;;;;;7.45;2.88;;;;;;;27.37;30.85;96680.59;5005772;28;20042;-84
2022/06/14 09:34:10;;;;;;;9.30;3.00;;;;;;;28.57;28.56;96669.38;5005708;28;20044;-80
2022/06/14 09:36:55;;;;;;;6.70;2.67;;;;;;;29.25;29.70;96672.06;4996657;28;20065;-81
2022/06/14 09:39:53;;;;;;;8.00;2.83;;;;;;;27.98;29.96;96672.22;4999733;28;20065;-82
2022/06/14 09:42:58;;;;;;;7.07;3.00;;;;;;;28.85;29.52;96668.13;5005873;28;20038;-81
2022/06/14 09:45:33;;;;;;;9.15;3.05;;;;;;;29.77;27.75;96664.81;5006695;28;20092;-80
2022/06/14 09:48:27;;;;;;;6.05;2.28;;;;;;;28.85;28.52;96670.84;4995896;28;20139;-80
2022/06/14 09:50:59;;;;;;;13.15;2.80;;;;;;;28.17;28.71;96672.63;5004003;28;20031;-81
2022/06/14 09:53:38;;;;;;;6.68;3.17;;;;;;;29.28;26.06;96668.81;4995063;28;20041;-81
2022/06/14 09:56:36;;;;;;;7.28;2.53;;;;;;;28.31;27.32;96665.69;5004595;28;20037;-81
2022/06/14 09:59:14;;;;;;;7.07;2.97;;;;;;;28.53;27.92;96662.03;5005711;28;20037;-82
2022/06/14 10:01:53;;;;;;;6.65;2.72;;;;;;;29.46;27.59;96658.56;4995131;28;20046;-83
2022/06/14 10:04:48;;;;;;;7.50;2.40;;;;;;;30.49;24.81;96657.44;4983908;28;20094;-81
2022/06/14 10:07:34;;;;;;;7.78;4.03;;;;;;;29.66;26.32;96658.59;4986497;28;20042;-80
2022/06/14 10:10:20;;;;;;;6.03;2.65;;;;;;;28.78;27.05;96656.75;5004578;28;20040;-84
2022/06/14 10:12:58;;;;;;;5.65;2.83;;;;;;;29.06;27.63;96646.56;4997775;28;20042;-81
2022/06/14 10:15:41;;;;;;;4.30;2.38;;;;;;;28.78;26.80;96656.75;4989351;28;20022;-83
2022/06/14 10:18:36;;;;;;;6.45;2.78;;;;;;;28.04;26.96;96651.47;4993125;28;20034;-82
2022/06/14 10:21:24;;;;;;;5.38;2.75;;;;;;;30.01;26.21;96648.81;5013210;28;20061;-85
2022/06/14 10:23:58;;;;;;;6.82;2.50;;;;;;;29.97;26.00;96647.72;5006098;28;20034;-80
2022/06/14 10:29:18;;;;;;;5.72;2.20;;;;;;;30.29;24.16;96644.72;4998463;28;20035;-82
2022/06/14 10:32:10;;;;;;;6.25;2.20;;;;;;;30.21;24.90;96640.66;4987698;28;20034;-81
2022/06/14 10:34:39;;;;;;;6.57;2.88;;;;;;;30.53;26.62;96640.31;4997858;28;20403;-82
2022/06/14 10:37:29;;;;;;;5.18;2.50;;;;;;;31.60;25.71;96633.50;5002011;28;20076;-82
2022/06/14 10:40:34;;;;;;;8.75;3.08;;;;;;;31.79;25.23;96632.78;5005003;28;20050;-82
2022/06/14 10:43:21;;;;;;;6.70;2.70;;;;;;;30.46;27.16;96628.94;5001315;28;20053;-81
2022/06/14 10:45:54;;;;;;;6.53;2.85;;;;;;;30.38;27.32;96629.47;4997932;28;20057;-84
2022/06/14 10:48:41;;;;;;;8.80;3.47;;;;;;;30.63;27.46;96630.50;4986830;28;20034;-82
2022/06/14 10:51:49;;;;;;;6.32;3.30;;;;;;;31.06;27.32;96626.25;5002035;28;20105;-83
2022/06/14 10:54:24;;;;;;;6.03;3.10;;;;;;;30.73;26.43;96631.25;4991708;28;20073;-81
2022/06/14 10:57:36;;;;;;;6.20;3.10;;;;;;;29.67;27.83;96621.44;5003641;28;20488;-81
2022/06/14 11:00:50;;;;;;;7.90;3.40;;;;;;;28.71;29.96;96626.41;5010076;28;20531;-82
2022/06/14 11:03:54;;;;;;;6.18;3.38;;;;;;;29.44;29.45;96620.06;4979731;28;20500;-81
2022/06/14 11:07:03;;;;;;;11.68;3.63;;;;;;;30.55;27.69;96604.75;4993538;28;20027;-81
2022/06/14 11:09:41;;;;;;;8.63;3.38;;;;;;;29.44;28.75;96615.44;5006336;28;20031;-81
2022/06/14 11:12:34;;;;;;;8.90;3.17;;;;;;;30.47;28.20;96611.56;4983799;28;20038;-82
2022/06/14 11:15:15;;;;;;;5.95;2.90;;;;;;;31.04;26.12;96612.13;5003341;28;20038;-82
2022/06/14 11:17:57;;;;;;;6.85;2.95;;;;;;;29.99;27.11;96610.31;4995392;28;20033;-80
2022/06/14 11:21:06;;;;;;;6.22;3.33;;;;;;;28.59;29.65;96617.69;4990986;28;20121;-78
2022/06/14 11:23:58;;;;;;;7.82;3.22;;;;;;;27.66;30.41;96615.47;4979597;28;20042;-77
2022/06/14 11:26:57;;;;;;;6.85;3.28;;;;;;;28.98;28.24;96609.97;4980872;28;20030;-78
2022/06/14 11:29:34;;;;;;;9.88;3.75;;;;;;;29.75;29.07;96596.53;4976746;28;20038;-79
2022/06/14 11:32:08;;;;;;;7.05;3.05;;;;;;;28.75;29.69;96594.19;4972449;28;20480;-79
2022/06/14 11:34:41;;;;;;;6.82;3.10;;;;;;;29.57;28.93;96593.22;4976666;28;20100;-79
2022/06/14 11:37:26;;;;;;;;;;;;;;;29.62;29.13;96595.19;4982252;28;20086;-79
2022/06/14 11:40:07;;;;;;;6.75;3.00;;;;;;;27.65;30.08;96594.94;4981552;28;20673;-78
2022/06/14 11:42:55;;;;;;;6.80;2.80;;;;;;;28.87;28.56;96586.63;4966527;28;20058;-80
2022/06/14 11:45:39;;;;;;;8.70;3.90;;;;;;;28.78;30.01;96586.34;4982140;28;20381;-79
2022/06/14 11:48:28;;;;;;;6.32;3.03;;;;;;;27.80;31.06;96594.25;4988193;28;20038;-80
2022/06/14 11:51:13;;;;;;;11.00;6.65;;;;;;;28.76;30.08;96585.81;4988280;28;20042;-80
2022/06/14 11:53:48;;;;;;;9.35;3.20;;;;;;;28.86;28.76;96590.44;4989542;28;20456;-80
2022/06/14 11:56:38;;;;;;;6.85;2.67;;;;;;;29.27;29.18;96579.69;5016061;28;20378;-79
2022/06/14 11:59:16;;;;;;;6.10;2.85;;;;;;;29.92;28.23;96577.25;4984464;28;20050;-78
2022/06/14 12:02:03;;;;;;;7.28;2.90;;;;;;;30.14;27.93;96576.91;4991787;28;20041;-79
2022/06/14 12:04:53;;;;;;;6.00;3.03;;;;;;;28.78;29.04;96583.66;4981639;28;20038;-79
2022/06/14 12:07:44;;;;;;;7.78;3.80;;;;;;;28.04;30.62;96581.16;4978382;28;20045;-79
2022/06/14 12:10:48;;;;;;;6.78;3.63;;;;;;;28.81;29.23;96579.59;4977178;28;20134;-79
2022/06/14 12:13:21;;;;;;;5.85;2.90;;;;;;;29.59;28.66;96577.56;4987038;28;20034;-79
2022/06/14 12:16:11;;;;;;;7.43;3.17;;;;;;;29.41;27.94;96575.38;4982794;28;20057;-77
2022/06/14 12:18:42;;;;;;;6.78;3.10;;;;;;;28.34;30.55;96575.91;4988629;28;20038;-81
2022/06/14 12:21:27;;;;;;;5.85;2.90;;;;;;;29.37;30.17;96571.56;4987390;28;20694;-78
2022/06/14 12:24:02;;;;;;;7.90;3.22;;;;;;;28.75;29.80;96577.97;4984569;28;20080;-80
2022/06/14 12:26:58;;;;;;;5.97;3.28;;;;;;;28.90;29.33;96575.28;4988345;28;20728;-79
2022/06/14 12:29:36;;;;;;;15.75;6.78;;;;;;;30.46;28.89;96568.41;5008353;28;20027;-79
2022/06/14 12:32:30;;;;;;;5.28;2.95;;;;;;;30.43;27.05;96563.53;4980093;28;20046;-79
2022/06/14 12:35:14;;;;;;;7.60;3.17;;;;;;;28.55;28.63;96571.41;4986951;28;20496;-78
2022/06/14 12:38:01;;;;;;;8.15;3.33;;;;;;;27.94;30.02;96563.81;4981313;28;20026;-78
2022/06/14 12:40:35;;;;;;;8.27;2.72;;;;;;;29.05;29.82;96559.09;4993304;28;20438;-79